チェンナイ の空港の天気 - METARとTAF

チェンナイ国際空港 ( VOMM / MAA ) - インド チェンナイ
飛行場実況気象(Metar)
観測時間10/20 08:00 IST (10/20 02:30 UTC)
風向・風速南南西 3m/s
視程6000m
天気現象
少しの雲 雲底高度 550m
全天の4割程度の雲 雲底高度 3050m
気温29℃
湿度84%
気圧1009hPa
METARVOMM 200230Z 21005KT 6000 FEW018 SCT100 29/26 Q1009 NOSIG
過去の天気等 Google飛行場航空写真 Wunderground天気予報

過去48時間のMETAR

飛行場予報(TAF)
発表時間: 10/20 04:30 IST (10/19 23:00 UTC)
予報対象時間: 20日5時 IST ~ 21日11時 IST
風向・風速西南西 3m/s
視程3,000m
天気現象煙霧
少しの雲 雲底高度 610m
全天の4割程度の雲 雲底高度 3,050m
20日5時 IST ~ 20日8時 IST に一時的に
視程2,000m
天気現象もや
20日9時 IST ~ 20日10時 IST に徐々に
視程5,000m
天気現象もや
20日16時 IST ~ 20日18時 IST に徐々に
風向・風速南南東 3m/s
視程6,000m
20日17時 IST ~ 20日23時 IST に一時的に
全天の4割程度の雲 雲底高度 460m
少しの積乱雲 雲底高度 760m
全天の8割程度の雲 雲底高度 3,050m
21日5時 IST ~ 21日6時 IST に徐々に
視程3,000m
天気現象煙霧
21日9時 IST ~ 21日10時 IST に徐々に
視程5,000m
天気現象煙霧
TAF VOMM 192300Z 2000/2106 25005KT 3000 HZ FEW020 SCT100
TEMPO 2000/2003 2000 BR
BECMG 2004/2005 5000 BR
BECMG 2011/2013 16005KT 6000
TEMPO 2012/2018 SCT015 FEW025CB BKN100
BECMG 2100/2101 3000 HZ
BECMG 2104/2105 5000 HZ